createdAt,value
2023-02-23T00:00:51.057Z,13.72
2023-02-23T00:03:17.456Z,13.70
2023-02-23T00:05:43.798Z,13.67
2023-02-23T00:08:10.143Z,13.66
2023-02-23T00:10:36.467Z,13.63
2023-02-23T00:13:02.807Z,13.60
2023-02-23T00:15:29.146Z,13.58
2023-02-23T00:17:55.533Z,13.56
2023-02-23T00:20:21.856Z,13.54
2023-02-23T00:22:48.585Z,13.52
2023-02-23T00:25:14.933Z,13.49
2023-02-23T00:27:41.317Z,13.46
2023-02-23T00:30:07.642Z,13.44
2023-02-23T00:32:34.194Z,13.41
2023-02-23T00:35:00.397Z,13.41
2023-02-23T00:37:26.733Z,13.39
2023-02-23T00:39:53.146Z,13.37
2023-02-23T00:42:19.507Z,13.36
2023-02-23T00:44:45.851Z,13.33
2023-02-23T00:47:12.267Z,13.32
2023-02-23T00:49:38.621Z,13.28
2023-02-23T00:52:04.993Z,13.25
2023-02-23T00:54:31.381Z,13.25
2023-02-23T00:56:57.769Z,13.24
2023-02-23T00:59:24.109Z,13.21
2023-02-23T01:01:50.495Z,13.19
2023-02-23T01:04:16.865Z,13.18
2023-02-23T01:06:43.314Z,13.15
2023-02-23T01:09:09.644Z,13.14
2023-02-23T01:11:35.968Z,13.12
2023-02-23T01:14:02.377Z,13.11
2023-02-23T01:16:28.759Z,13.10
2023-02-23T01:18:55.072Z,13.08
2023-02-23T01:21:21.470Z,13.08
2023-02-23T01:23:47.815Z,13.06
2023-02-23T01:26:14.235Z,13.04
2023-02-23T01:28:40.598Z,13.01
2023-02-23T01:31:07.042Z,12.97
2023-02-23T01:33:33.351Z,12.95
2023-02-23T01:35:59.695Z,12.94
2023-02-23T01:38:26.024Z,12.91
2023-02-23T01:40:52.402Z,12.91
2023-02-23T01:43:18.717Z,12.89
2023-02-23T01:45:45.103Z,12.89
2023-02-23T01:48:11.469Z,12.87
2023-02-23T01:50:37.800Z,12.86
2023-02-23T01:53:04.180Z,12.84
2023-02-23T01:55:30.556Z,12.84
2023-02-23T01:57:56.906Z,12.82
2023-02-23T02:00:23.240Z,12.81
2023-02-23T02:02:49.606Z,12.78
2023-02-23T02:05:15.967Z,12.76
2023-02-23T02:07:42.288Z,12.77
2023-02-23T02:10:08.667Z,12.76
2023-02-23T02:12:35.073Z,12.73
2023-02-23T02:15:01.455Z,12.72
2023-02-23T02:17:27.778Z,12.69
2023-02-23T02:19:54.138Z,12.69
2023-02-23T02:22:20.462Z,12.64
2023-02-23T02:24:46.917Z,12.64
2023-02-23T02:27:13.221Z,12.61
2023-02-23T02:29:39.548Z,12.62
2023-02-23T02:32:06.045Z,12.60
2023-02-23T02:34:32.299Z,12.58
2023-02-23T02:36:58.631Z,12.57
2023-02-23T02:39:24.969Z,12.55
2023-02-23T02:41:51.330Z,12.52
2023-02-23T02:44:17.713Z,12.53
2023-02-23T02:46:44.035Z,12.51
2023-02-23T02:49:10.442Z,12.49
2023-02-23T02:51:36.801Z,12.48
2023-02-23T02:54:03.193Z,12.46
2023-02-23T02:56:29.546Z,12.45
2023-02-23T02:58:55.883Z,12.43
2023-02-23T03:01:22.236Z,12.41
2023-02-23T03:03:48.618Z,12.38
2023-02-23T03:06:14.951Z,12.36
2023-02-23T03:08:41.331Z,12.34
2023-02-23T03:11:07.676Z,12.31
2023-02-23T03:13:34.115Z,12.30
2023-02-23T03:16:00.485Z,12.29
2023-02-23T03:18:26.901Z,12.27
2023-02-23T03:20:53.266Z,12.27
2023-02-23T03:23:19.641Z,12.23
2023-02-23T03:25:46.012Z,12.21
2023-02-23T03:28:12.407Z,12.19
2023-02-23T03:30:38.756Z,12.20
2023-02-23T03:33:05.072Z,12.18
2023-02-23T03:35:31.449Z,12.17
2023-02-23T03:37:57.828Z,12.13
2023-02-23T03:40:24.201Z,12.12
2023-02-23T03:42:50.589Z,12.11
2023-02-23T03:45:16.892Z,12.08
2023-02-23T03:47:43.309Z,12.06
2023-02-23T03:50:09.666Z,12.05
2023-02-23T03:52:36.006Z,12.03
2023-02-23T03:55:02.380Z,12.03
2023-02-23T03:57:28.764Z,12.00
2023-02-23T03:59:55.072Z,11.99
2023-02-23T04:02:21.423Z,11.96
2023-02-23T04:04:47.744Z,11.96
2023-02-23T04:07:14.128Z,11.96
2023-02-23T04:09:40.478Z,11.96
2023-02-23T04:12:06.865Z,11.95
2023-02-23T04:14:33.240Z,11.91
2023-02-23T04:16:59.582Z,11.90
2023-02-23T04:19:25.947Z,11.86
2023-02-23T04:21:52.338Z,11.87
2023-02-23T04:24:18.662Z,11.87
2023-02-23T04:26:45.049Z,11.84
2023-02-23T04:29:11.417Z,11.80
2023-02-23T04:31:37.814Z,11.82
2023-02-23T04:34:04.081Z,11.81
2023-02-23T04:36:30.457Z,11.80
2023-02-23T04:38:56.801Z,11.79
2023-02-23T04:41:23.159Z,11.78
2023-02-23T04:43:49.522Z,11.76
2023-02-23T04:46:15.925Z,11.73
2023-02-23T04:48:42.215Z,11.72
2023-02-23T04:51:08.628Z,11.72
2023-02-23T04:53:34.926Z,11.60
2023-02-23T04:56:01.320Z,11.68
2023-02-23T04:58:27.634Z,11.65
2023-02-23T05:00:54.020Z,11.65
2023-02-23T05:03:20.344Z,11.65
2023-02-23T05:05:46.801Z,11.63
2023-02-23T05:08:13.201Z,11.62
2023-02-23T05:10:40.422Z,11.64
2023-02-23T05:13:05.897Z,11.63
2023-02-23T05:15:32.327Z,11.62
2023-02-23T05:17:58.637Z,11.62
2023-02-23T05:20:25.007Z,11.63
2023-02-23T05:22:51.644Z,11.60
2023-02-23T05:25:17.983Z,11.60
2023-02-23T05:27:44.311Z,11.62
2023-02-23T05:30:11.225Z,11.65
2023-02-23T05:32:37.601Z,11.71
2023-02-23T05:35:03.869Z,11.77
2023-02-23T05:37:30.250Z,11.84
2023-02-23T05:39:56.647Z,11.93
2023-02-23T05:42:23.011Z,11.99
2023-02-23T05:44:49.362Z,12.03
2023-02-23T05:47:15.854Z,12.05
2023-02-23T05:49:42.223Z,12.15
2023-02-23T05:52:08.636Z,12.23
2023-02-23T05:54:34.983Z,12.24
2023-02-23T05:57:01.907Z,12.22
2023-02-23T05:59:27.707Z,12.16
2023-02-23T06:01:54.067Z,12.13
2023-02-23T06:04:20.461Z,12.16
2023-02-23T06:06:46.824Z,12.22
2023-02-23T06:09:13.200Z,12.28
2023-02-23T06:11:39.774Z,12.30
2023-02-23T06:14:06.163Z,12.32
2023-02-23T06:16:32.598Z,12.40
2023-02-23T06:18:58.924Z,12.47
2023-02-23T06:21:25.256Z,12.56
2023-02-23T06:23:51.638Z,12.65
2023-02-23T06:26:18.249Z,12.78
2023-02-23T06:28:44.556Z,12.85
2023-02-23T06:31:11.385Z,12.92
2023-02-23T06:33:37.632Z,13.03
2023-02-23T06:36:04.040Z,13.14
2023-02-23T06:38:30.324Z,13.25
2023-02-23T06:40:56.985Z,13.36
2023-02-23T06:43:23.561Z,13.46
2023-02-23T06:45:49.715Z,13.55
2023-02-23T06:48:16.111Z,13.63
2023-02-23T06:50:42.497Z,13.72
2023-02-23T06:53:08.828Z,13.82
2023-02-23T06:55:35.179Z,13.94
2023-02-23T06:58:01.505Z,14.06
2023-02-23T07:00:27.899Z,14.20
2023-02-23T07:02:54.253Z,14.35
2023-02-23T07:05:20.643Z,14.48
2023-02-23T07:07:47.132Z,14.66
2023-02-23T07:10:13.514Z,14.79
2023-02-23T07:12:39.836Z,14.91
2023-02-23T07:15:06.305Z,15.12
2023-02-23T07:17:32.678Z,15.36
2023-02-23T07:19:59.066Z,15.58
2023-02-23T07:22:25.427Z,15.69
2023-02-23T07:24:51.949Z,15.78
2023-02-23T07:27:18.326Z,15.96
2023-02-23T07:29:44.649Z,16.12
2023-02-23T07:32:12.280Z,16.28
2023-02-23T07:34:38.473Z,16.51
2023-02-23T07:37:04.861Z,16.60
2023-02-23T07:39:31.334Z,16.73
2023-02-23T07:41:57.646Z,16.89
2023-02-23T07:44:24.063Z,17.07
2023-02-23T07:46:50.783Z,17.26
2023-02-23T07:49:17.124Z,17.32
2023-02-23T07:51:43.468Z,17.41
2023-02-23T07:54:09.958Z,17.57
2023-02-23T07:56:36.274Z,17.83
2023-02-23T07:59:02.638Z,18.03
2023-02-23T08:01:29.072Z,18.18
2023-02-23T08:03:55.421Z,18.23
2023-02-23T08:06:21.734Z,18.30
2023-02-23T08:08:48.145Z,18.42
2023-02-23T08:11:14.506Z,18.52
2023-02-23T08:13:40.863Z,18.66
2023-02-23T08:16:07.245Z,18.87
2023-02-23T08:18:33.676Z,19.13
2023-02-23T08:20:59.980Z,19.38
2023-02-23T08:23:26.329Z,19.57
2023-02-23T08:25:52.657Z,19.91
2023-02-23T08:28:19.042Z,20.15
2023-02-23T08:30:45.515Z,20.23
2023-02-23T08:33:11.802Z,20.36
2023-02-23T08:35:38.140Z,20.54
2023-02-23T08:38:04.549Z,20.65
2023-02-23T08:40:30.928Z,20.76
2023-02-23T08:42:57.306Z,20.75
2023-02-23T08:45:23.658Z,20.96
2023-02-23T08:47:50.086Z,21.24
2023-02-23T08:50:16.391Z,21.37
2023-02-23T08:52:42.744Z,21.40
2023-02-23T08:55:09.134Z,21.72
2023-02-23T08:57:35.495Z,21.79
2023-02-23T09:00:01.858Z,21.97
2023-02-23T09:02:28.230Z,22.06
2023-02-23T09:04:54.584Z,21.92
2023-02-23T09:07:21.220Z,21.93
2023-02-23T09:09:47.548Z,22.12
2023-02-23T09:12:13.973Z,22.23
2023-02-23T09:14:40.465Z,22.21
2023-02-23T09:17:06.867Z,22.20
2023-02-23T09:19:33.211Z,22.27
2023-02-23T09:21:59.617Z,22.36
2023-02-23T09:24:27.022Z,22.57
2023-02-23T09:26:53.368Z,22.86
2023-02-23T09:29:19.746Z,22.98
2023-02-23T09:31:46.166Z,23.11
2023-02-23T09:34:12.456Z,23.30
2023-02-23T09:36:38.846Z,23.27
2023-02-23T09:39:05.244Z,23.14
2023-02-23T09:41:31.625Z,23.24
2023-02-23T09:43:58.077Z,23.60
2023-02-23T09:46:24.501Z,24.02
2023-02-23T09:48:50.800Z,24.34
2023-02-23T09:51:17.668Z,24.30
2023-02-23T09:53:43.919Z,24.05
2023-02-23T09:56:09.943Z,24.02
2023-02-23T09:58:36.267Z,23.99
2023-02-23T10:01:02.659Z,24.05
2023-02-23T10:03:29.068Z,24.14
2023-02-23T10:05:55.428Z,24.40
2023-02-23T10:08:22.048Z,24.83
2023-02-23T10:10:48.446Z,25.11
2023-02-23T10:13:14.816Z,25.04
2023-02-23T10:15:41.233Z,25.28
2023-02-23T10:18:07.478Z,25.53
2023-02-23T10:20:33.901Z,25.90
2023-02-23T10:23:00.234Z,26.26
2023-02-23T10:25:26.635Z,26.53
2023-02-23T10:27:52.951Z,26.64
2023-02-23T10:30:19.321Z,26.59
2023-02-23T10:32:45.722Z,26.50
2023-02-23T10:35:12.087Z,26.59
2023-02-23T10:37:38.442Z,26.76
2023-02-23T10:40:04.901Z,26.59
2023-02-23T10:42:31.248Z,26.56
2023-02-23T10:44:57.611Z,26.72
2023-02-23T10:47:24.306Z,26.91
2023-02-23T10:49:50.593Z,27.16
2023-02-23T10:52:16.920Z,27.42
2023-02-23T10:54:43.281Z,27.60
2023-02-23T10:57:09.663Z,27.62
2023-02-23T10:59:36.146Z,27.69
2023-02-23T11:02:03.050Z,27.69
2023-02-23T11:04:29.336Z,27.75
2023-02-23T11:06:55.612Z,27.78
2023-02-23T11:09:24.862Z,27.88
2023-02-23T11:11:48.380Z,28.04
2023-02-23T11:14:14.725Z,27.85
2023-02-23T11:16:41.153Z,27.55
2023-02-23T11:19:07.457Z,27.36
2023-02-23T11:21:34.245Z,27.32
2023-02-23T11:24:00.575Z,27.40
2023-02-23T11:26:26.950Z,27.59
2023-02-23T11:28:53.309Z,27.78
2023-02-23T11:31:19.997Z,27.98
2023-02-23T11:33:45.995Z,28.04
2023-02-23T11:36:12.434Z,28.18
2023-02-23T11:38:38.819Z,28.21
2023-02-23T11:41:05.149Z,27.72
2023-02-23T11:43:31.520Z,27.19
2023-02-23T11:45:57.889Z,26.82
2023-02-23T11:48:24.315Z,26.53
2023-02-23T11:50:50.643Z,26.54
2023-02-23T11:53:17.051Z,26.51
2023-02-23T11:55:43.454Z,26.39
2023-02-23T11:58:09.886Z,26.45
2023-02-23T12:00:36.198Z,26.58
2023-02-23T12:03:02.639Z,26.63
2023-02-23T12:05:28.937Z,26.89
2023-02-23T12:07:55.293Z,26.95
2023-02-23T12:10:21.761Z,26.99
2023-02-23T12:12:48.111Z,26.90
2023-02-23T12:15:14.437Z,26.72
2023-02-23T12:17:40.836Z,26.75
2023-02-23T12:20:07.166Z,26.75
2023-02-23T12:22:33.551Z,26.52
2023-02-23T12:24:59.878Z,26.49
2023-02-23T12:27:26.289Z,26.46
2023-02-23T12:29:52.622Z,26.26
2023-02-23T12:32:19.334Z,26.20
2023-02-23T12:34:45.546Z,26.11
2023-02-23T12:37:11.901Z,25.97
2023-02-23T12:39:38.314Z,25.51
2023-02-23T12:42:04.672Z,25.39
2023-02-23T12:44:31.085Z,25.34
2023-02-23T12:46:57.543Z,25.14
2023-02-23T12:49:23.857Z,24.99
2023-02-23T12:51:50.250Z,24.99
2023-02-23T12:54:16.709Z,24.94
2023-02-23T12:56:43.162Z,24.75
2023-02-23T12:59:09.517Z,24.70
2023-02-23T13:01:35.958Z,24.52
2023-02-23T13:04:02.271Z,24.48
2023-02-23T13:06:28.655Z,24.44
2023-02-23T13:08:55.020Z,24.49
2023-02-23T13:11:21.556Z,24.46
2023-02-23T13:13:47.852Z,24.31
2023-02-23T13:16:14.511Z,24.13
2023-02-23T13:18:40.869Z,24.01
2023-02-23T13:21:07.255Z,23.95
2023-02-23T13:23:33.688Z,23.84
2023-02-23T13:26:00.086Z,23.76
2023-02-23T13:28:26.386Z,23.78
2023-02-23T13:30:52.825Z,23.77
2023-02-23T13:33:19.065Z,23.77
2023-02-23T13:35:45.506Z,23.78
2023-02-23T13:38:11.827Z,23.67
2023-02-23T13:40:38.246Z,23.59
2023-02-23T13:43:04.587Z,23.49
2023-02-23T13:45:30.949Z,23.43
2023-02-23T13:47:57.432Z,23.37
2023-02-23T13:50:23.821Z,23.21
2023-02-23T13:52:50.250Z,23.09
2023-02-23T13:55:16.610Z,23.10
2023-02-23T13:57:42.939Z,23.07
2023-02-23T14:00:09.421Z,23.04
2023-02-23T14:02:35.830Z,22.95
2023-02-23T14:05:02.093Z,22.85
2023-02-23T14:07:28.412Z,22.72
2023-02-23T14:09:55.092Z,22.65
2023-02-23T14:12:21.428Z,22.61
2023-02-23T14:14:47.772Z,22.53
2023-02-23T14:17:14.164Z,22.47
2023-02-23T14:19:40.630Z,22.43
2023-02-23T14:22:07.044Z,22.40
2023-02-23T14:24:33.447Z,22.42
2023-02-23T14:26:59.851Z,22.44
2023-02-23T14:29:26.229Z,22.39
2023-02-23T14:31:52.742Z,22.28
2023-02-23T14:34:18.917Z,22.19
2023-02-23T14:36:45.316Z,22.09
2023-02-23T14:39:11.745Z,21.99
2023-02-23T14:41:38.167Z,21.93
2023-02-23T14:44:04.607Z,21.83
2023-02-23T14:46:31.052Z,21.67
2023-02-23T14:48:57.370Z,21.50
2023-02-23T14:51:23.726Z,21.38
2023-02-23T14:53:50.167Z,21.08
2023-02-23T14:56:16.571Z,20.85
2023-02-23T14:58:43.297Z,20.61
2023-02-23T15:01:09.640Z,20.49
2023-02-23T15:03:35.971Z,20.38
2023-02-23T15:06:02.422Z,20.33
2023-02-23T15:08:28.735Z,20.18
2023-02-23T15:10:55.131Z,19.93
2023-02-23T15:13:21.524Z,19.78
2023-02-23T15:15:47.841Z,19.71
2023-02-23T15:18:14.244Z,19.69
2023-02-23T15:20:40.607Z,19.41
2023-02-23T15:23:07.030Z,19.53
2023-02-23T15:25:33.357Z,19.57
2023-02-23T15:27:59.727Z,19.60
2023-02-23T15:30:26.029Z,19.48
2023-02-23T15:32:52.578Z,19.45
2023-02-23T15:35:18.783Z,19.45
2023-02-23T15:37:45.146Z,19.45
2023-02-23T15:40:12.006Z,19.42
2023-02-23T15:42:38.393Z,19.39
2023-02-23T15:45:04.719Z,19.36
2023-02-23T15:47:31.064Z,19.22
2023-02-23T15:49:57.512Z,19.15
2023-02-23T15:52:23.887Z,19.09
2023-02-23T15:54:50.404Z,18.86
2023-02-23T15:57:16.838Z,18.70
2023-02-23T15:59:43.155Z,18.61
2023-02-23T16:02:09.541Z,18.61
2023-02-23T16:04:38.361Z,18.57
2023-02-23T16:07:04.871Z,18.22
2023-02-23T16:09:33.585Z,17.76
2023-02-23T16:11:59.912Z,17.88
2023-02-23T16:14:26.235Z,17.81
2023-02-23T16:17:04.918Z,17.85
2023-02-23T16:19:18.987Z,17.83
2023-02-23T16:21:45.409Z,17.83
2023-02-23T16:24:11.846Z,17.82
2023-02-23T16:26:38.182Z,17.76
2023-02-23T16:29:04.585Z,17.60
2023-02-23T16:31:30.998Z,17.46
2023-02-23T16:33:57.328Z,17.40
2023-02-23T16:36:23.960Z,17.39
2023-02-23T16:38:50.844Z,17.35
2023-02-23T16:41:17.464Z,17.40
2023-02-23T16:43:45.134Z,17.34
2023-02-23T16:46:11.487Z,17.34
2023-02-23T16:48:37.909Z,17.39
2023-02-23T16:51:04.255Z,17.35
2023-02-23T16:53:30.613Z,17.30
2023-02-23T16:55:56.930Z,17.27
2023-02-23T16:58:23.388Z,17.15
2023-02-23T17:00:49.698Z,17.12
2023-02-23T17:03:16.097Z,16.90
2023-02-23T17:05:42.838Z,16.88
2023-02-23T17:08:09.170Z,16.83
2023-02-23T17:10:35.596Z,16.71
2023-02-23T17:13:01.945Z,16.66
2023-02-23T17:15:28.433Z,16.44
2023-02-23T17:17:54.790Z,16.43
2023-02-23T17:20:21.176Z,16.28
2023-02-23T17:22:47.586Z,16.26
2023-02-23T17:25:14.028Z,16.27
2023-02-23T17:27:40.421Z,16.33
2023-02-23T17:30:06.752Z,16.35
2023-02-23T17:32:33.299Z,16.15
2023-02-23T17:34:59.627Z,16.16
2023-02-23T17:37:26.007Z,16.16
2023-02-23T17:39:52.390Z,16.23
2023-02-23T17:42:18.792Z,16.22
2023-02-23T17:44:45.151Z,16.21
2023-02-23T17:47:11.551Z,16.13
2023-02-23T17:49:37.919Z,15.97
2023-02-23T17:52:04.298Z,15.84
2023-02-23T17:54:30.897Z,15.75
2023-02-23T17:56:57.273Z,15.60
2023-02-23T17:59:23.636Z,15.65
2023-02-23T18:01:50.326Z,15.50
2023-02-23T18:04:16.599Z,15.50
2023-02-23T18:06:42.946Z,15.59
2023-02-23T18:09:09.375Z,15.54
2023-02-23T18:11:35.687Z,15.49
2023-02-23T18:14:02.021Z,15.50
2023-02-23T18:16:28.640Z,15.52
2023-02-23T18:18:54.898Z,15.50
2023-02-23T18:21:21.350Z,15.40
2023-02-23T18:23:48.017Z,15.25
2023-02-23T18:26:14.448Z,15.19
2023-02-23T18:28:40.845Z,15.07
2023-02-23T18:31:08.430Z,15.06
2023-02-23T18:33:34.764Z,14.98
2023-02-23T18:36:01.124Z,14.70
2023-02-23T18:38:27.786Z,14.62
2023-02-23T18:40:54.170Z,14.50
2023-02-23T18:43:20.530Z,14.12
2023-02-23T18:45:46.921Z,14.22
2023-02-23T18:48:15.458Z,14.26
2023-02-23T18:50:41.835Z,14.14
2023-02-23T18:53:08.181Z,14.10
2023-02-23T18:55:34.569Z,14.19
2023-02-23T18:58:00.924Z,14.29
2023-02-23T19:00:27.488Z,14.15
2023-02-23T19:02:53.716Z,14.27
2023-02-23T19:05:22.046Z,14.23
2023-02-23T19:07:46.521Z,14.16
2023-02-23T19:10:12.896Z,14.26
2023-02-23T19:12:39.332Z,14.35
2023-02-23T19:15:05.926Z,14.30
2023-02-23T19:17:32.295Z,14.22
2023-02-23T19:19:58.673Z,14.18
2023-02-23T19:22:25.002Z,14.01
2023-02-23T19:24:51.353Z,13.80
2023-02-23T19:27:17.758Z,13.79
2023-02-23T19:29:44.109Z,13.82
2023-02-23T19:32:10.617Z,13.60
2023-02-23T19:34:37.055Z,13.63
2023-02-23T19:37:03.489Z,13.47
2023-02-23T19:39:29.845Z,13.41
2023-02-23T19:41:56.253Z,13.49
2023-02-23T19:44:22.595Z,13.42
2023-02-23T19:46:49.155Z,13.42
2023-02-23T19:49:15.520Z,13.42
2023-02-23T19:51:42.373Z,13.35
2023-02-23T19:54:08.999Z,13.25
2023-02-23T19:56:35.350Z,13.19
2023-02-23T19:59:01.688Z,13.10
2023-02-23T20:01:28.846Z,12.92
2023-02-23T20:03:55.247Z,12.88
2023-02-23T20:06:21.868Z,12.72
2023-02-23T20:08:48.263Z,12.62
2023-02-23T20:11:14.713Z,12.72
2023-02-23T20:13:41.160Z,12.65
2023-02-23T20:16:07.648Z,12.55
2023-02-23T20:18:34.086Z,12.42
2023-02-23T20:21:00.452Z,12.67
2023-02-23T20:23:27.163Z,13.18
2023-02-23T20:25:53.468Z,13.24
2023-02-23T20:28:19.898Z,13.19
2023-02-23T20:30:46.325Z,13.14
2023-02-23T20:33:12.655Z,13.11
2023-02-23T20:35:39.089Z,13.09
2023-02-23T20:38:05.436Z,13.09
2023-02-23T20:40:31.796Z,13.09
2023-02-23T20:42:58.256Z,13.10
2023-02-23T20:45:24.901Z,13.11
2023-02-23T20:47:51.260Z,13.11
2023-02-23T20:50:17.622Z,13.13
2023-02-23T20:52:43.969Z,13.13
2023-02-23T20:55:10.333Z,13.17
2023-02-23T20:57:36.730Z,13.17
2023-02-23T21:00:03.053Z,13.18
2023-02-23T21:02:29.506Z,13.19
2023-02-23T21:04:55.852Z,13.20
2023-02-23T21:07:22.197Z,13.20
2023-02-23T21:09:48.608Z,13.20
2023-02-23T21:12:15.090Z,13.23
2023-02-23T21:14:41.506Z,13.24
2023-02-23T21:17:08.163Z,13.26
2023-02-23T21:19:34.474Z,13.26
2023-02-23T21:22:00.821Z,13.35
2023-02-23T21:30:27.944Z,14.15
2023-02-23T21:32:54.353Z,14.55
2023-02-23T21:35:20.661Z,14.53
2023-02-23T21:37:47.032Z,14.33
2023-02-23T21:40:13.417Z,14.13
2023-02-23T21:42:39.763Z,13.96
2023-02-23T21:45:06.111Z,13.85
2023-02-23T21:47:32.433Z,13.75
2023-02-23T21:49:58.812Z,13.69
2023-02-23T21:52:25.162Z,13.60
2023-02-23T21:54:51.522Z,13.54
2023-02-23T21:57:17.880Z,13.49
2023-02-23T21:59:44.266Z,13.44
2023-02-23T22:02:10.623Z,13.39
2023-02-23T22:04:37.269Z,13.37
2023-02-23T22:07:03.357Z,13.33
2023-02-23T22:09:29.755Z,13.28
2023-02-23T22:11:56.175Z,13.29
2023-02-23T22:14:22.517Z,13.28
2023-02-23T22:16:48.830Z,13.27
2023-02-23T22:19:15.310Z,13.35
2023-02-23T22:21:41.605Z,13.39
2023-02-23T22:24:07.988Z,13.37
2023-02-23T22:26:34.308Z,13.32
2023-02-23T22:29:00.657Z,13.29
2023-02-23T22:31:27.122Z,13.27
2023-02-23T22:33:53.468Z,13.24
2023-02-23T22:36:19.804Z,13.21
2023-02-23T22:38:46.181Z,13.20
2023-02-23T22:41:12.564Z,13.18
2023-02-23T22:43:38.957Z,13.17
2023-02-23T22:46:05.303Z,13.15
2023-02-23T22:48:32.011Z,13.14
2023-02-23T22:50:58.374Z,13.12
2023-02-23T22:53:24.708Z,13.11
2023-02-23T22:55:51.065Z,13.11
2023-02-23T22:58:17.464Z,13.10
2023-02-23T23:00:43.775Z,13.08
2023-02-23T23:03:10.358Z,13.07
2023-02-23T23:05:36.644Z,13.06
2023-02-23T23:08:03.031Z,13.05
2023-02-23T23:10:29.347Z,13.03
2023-02-23T23:12:55.693Z,13.02
2023-02-23T23:15:23.540Z,13.00
2023-02-23T23:17:48.663Z,12.99
2023-02-23T23:20:14.733Z,13.00
2023-02-23T23:22:41.085Z,12.99
2023-02-23T23:25:07.439Z,12.97
2023-02-23T23:27:33.815Z,12.97
2023-02-23T23:30:00.174Z,12.96
2023-02-23T23:32:26.662Z,12.95
2023-02-23T23:34:52.905Z,12.95
2023-02-23T23:37:19.271Z,12.95
2023-02-23T23:39:45.649Z,12.94
2023-02-23T23:42:12.030Z,12.93
2023-02-23T23:44:38.326Z,12.92
2023-02-23T23:47:04.668Z,12.91
2023-02-23T23:49:31.034Z,12.91
2023-02-23T23:51:57.385Z,12.91
2023-02-23T23:54:23.748Z,12.90
2023-02-23T23:56:50.088Z,12.89
2023-02-23T23:59:16.481Z,12.89
